sensor_id;sensor_type;location;lat;lon;timestamp;P1;durP1;ratioP1;P2;durP2;ratioP2
2430;SDS011;1226;48.998;9.300;2022-08-03T00:00:44;9.72;;;3.84;;
2430;SDS011;1226;48.998;9.300;2022-08-03T00:03:10;3.38;;;3.08;;
2430;SDS011;1226;48.998;9.300;2022-08-03T00:05:36;4.42;;;4.02;;
2430;SDS011;1226;48.998;9.300;2022-08-03T00:08:02;4.52;;;4.12;;
2430;SDS011;1226;48.998;9.300;2022-08-03T00:10:28;4.32;;;3.96;;
2430;SDS011;1226;48.998;9.300;2022-08-03T00:12:54;5.64;;;3.62;;
2430;SDS011;1226;48.998;9.300;2022-08-03T00:15:20;4.78;;;3.70;;
2430;SDS011;1226;48.998;9.300;2022-08-03T00:17:45;4.16;;;3.68;;
2430;SDS011;1226;48.998;9.300;2022-08-03T00:20:11;4.98;;;3.52;;
2430;SDS011;1226;48.998;9.300;2022-08-03T00:22:38;5.80;;;3.80;;
2430;SDS011;1226;48.998;9.300;2022-08-03T00:25:03;4.20;;;3.76;;
2430;SDS011;1226;48.998;9.300;2022-08-03T00:27:29;3.64;;;3.22;;
2430;SDS011;1226;48.998;9.300;2022-08-03T00:29:55;3.72;;;3.42;;
2430;SDS011;1226;48.998;9.300;2022-08-03T00:32:21;3.82;;;3.42;;
2430;SDS011;1226;48.998;9.300;2022-08-03T00:34:47;3.50;;;3.20;;
2430;SDS011;1226;48.998;9.300;2022-08-03T00:37:12;3.92;;;3.62;;
2430;SDS011;1226;48.998;9.300;2022-08-03T00:39:38;6.86;;;3.74;;
2430;SDS011;1226;48.998;9.300;2022-08-03T00:42:04;3.90;;;3.30;;
2430;SDS011;1226;48.998;9.300;2022-08-03T00:44:30;5.14;;;3.36;;
2430;SDS011;1226;48.998;9.300;2022-08-03T00:46:56;3.90;;;3.16;;
2430;SDS011;1226;48.998;9.300;2022-08-03T00:49:22;3.58;;;3.26;;
2430;SDS011;1226;48.998;9.300;2022-08-03T00:51:48;4.12;;;3.72;;
2430;SDS011;1226;48.998;9.300;2022-08-03T00:54:14;3.58;;;3.28;;
2430;SDS011;1226;48.998;9.300;2022-08-03T00:56:39;3.72;;;3.42;;
2430;SDS011;1226;48.998;9.300;2022-08-03T00:59:05;4.78;;;3.52;;
2430;SDS011;1226;48.998;9.300;2022-08-03T01:01:31;4.92;;;3.30;;
2430;SDS011;1226;48.998;9.300;2022-08-03T01:03:57;6.48;;;3.60;;
2430;SDS011;1226;48.998;9.300;2022-08-03T01:06:24;4.34;;;3.94;;
2430;SDS011;1226;48.998;9.300;2022-08-03T01:08:51;5.10;;;4.04;;
2430;SDS011;1226;48.998;9.300;2022-08-03T01:11:18;4.46;;;3.44;;
2430;SDS011;1226;48.998;9.300;2022-08-03T01:14:17;4.44;;;3.56;;
2430;SDS011;1226;48.998;9.300;2022-08-03T01:16:22;4.24;;;3.84;;
2430;SDS011;1226;48.998;9.300;2022-08-03T01:18:40;4.16;;;3.76;;
2430;SDS011;1226;48.998;9.300;2022-08-03T01:21:06;7.20;;;3.72;;
2430;SDS011;1226;48.998;9.300;2022-08-03T01:26:12;4.34;;;3.88;;
2430;SDS011;1226;48.998;9.300;2022-08-03T01:31:02;3.40;;;3.10;;
2430;SDS011;1226;48.998;9.300;2022-08-03T01:33:31;6.56;;;4.28;;
2430;SDS011;1226;48.998;9.300;2022-08-03T01:35:53;4.02;;;3.60;;
2430;SDS011;1226;48.998;9.300;2022-08-03T01:38:21;5.48;;;3.94;;
2430;SDS011;1226;48.998;9.300;2022-08-03T01:40:46;3.50;;;3.20;;
2430;SDS011;1226;48.998;9.300;2022-08-03T01:43:15;3.94;;;3.54;;
2430;SDS011;1226;48.998;9.300;2022-08-03T01:45:38;4.20;;;3.48;;
2430;SDS011;1226;48.998;9.300;2022-08-03T01:48:04;4.00;;;3.04;;
2430;SDS011;1226;48.998;9.300;2022-08-03T01:50:30;4.52;;;4.12;;
2430;SDS011;1226;48.998;9.300;2022-08-03T01:52:56;4.24;;;3.66;;
2430;SDS011;1226;48.998;9.300;2022-08-03T01:55:22;3.70;;;3.28;;
2430;SDS011;1226;48.998;9.300;2022-08-03T01:57:48;3.68;;;3.28;;
2430;SDS011;1226;48.998;9.300;2022-08-03T02:00:13;3.80;;;3.42;;
2430;SDS011;1226;48.998;9.300;2022-08-03T02:02:39;4.86;;;3.98;;
2430;SDS011;1226;48.998;9.300;2022-08-03T02:05:06;4.64;;;3.98;;
2430;SDS011;1226;48.998;9.300;2022-08-03T02:07:31;3.88;;;3.48;;
2430;SDS011;1226;48.998;9.300;2022-08-03T02:09:57;6.20;;;3.58;;
2430;SDS011;1226;48.998;9.300;2022-08-03T02:12:23;5.10;;;4.64;;
2430;SDS011;1226;48.998;9.300;2022-08-03T02:14:48;3.38;;;3.08;;
2430;SDS011;1226;48.998;9.300;2022-08-03T02:17:14;3.66;;;3.34;;
2430;SDS011;1226;48.998;9.300;2022-08-03T02:19:41;4.24;;;3.84;;
2430;SDS011;1226;48.998;9.300;2022-08-03T02:22:07;4.82;;;3.90;;
2430;SDS011;1226;48.998;9.300;2022-08-03T02:24:32;3.94;;;3.64;;
2430;SDS011;1226;48.998;9.300;2022-08-03T02:26:58;4.30;;;3.36;;
2430;SDS011;1226;48.998;9.300;2022-08-03T02:29:24;4.22;;;3.82;;
2430;SDS011;1226;48.998;9.300;2022-08-03T02:31:49;4.00;;;3.66;;
2430;SDS011;1226;48.998;9.300;2022-08-03T02:34:16;3.70;;;3.40;;
2430;SDS011;1226;48.998;9.300;2022-08-03T02:36:41;4.38;;;3.98;;
2430;SDS011;1226;48.998;9.300;2022-08-03T02:39:09;4.08;;;3.68;;
2430;SDS011;1226;48.998;9.300;2022-08-03T02:41:37;4.12;;;3.72;;
2430;SDS011;1226;48.998;9.300;2022-08-03T02:44:01;4.08;;;3.48;;
2430;SDS011;1226;48.998;9.300;2022-08-03T02:46:27;4.74;;;3.48;;
2430;SDS011;1226;48.998;9.300;2022-08-03T02:48:52;3.82;;;3.42;;
2430;SDS011;1226;48.998;9.300;2022-08-03T02:51:18;4.10;;;3.70;;
2430;SDS011;1226;48.998;9.300;2022-08-03T02:53:44;4.02;;;3.62;;
2430;SDS011;1226;48.998;9.300;2022-08-03T02:56:10;3.94;;;3.60;;
2430;SDS011;1226;48.998;9.300;2022-08-03T02:58:36;3.40;;;3.10;;
2430;SDS011;1226;48.998;9.300;2022-08-03T03:01:02;4.06;;;3.40;;
2430;SDS011;1226;48.998;9.300;2022-08-03T03:03:28;3.86;;;3.28;;
2430;SDS011;1226;48.998;9.300;2022-08-03T03:05:53;3.62;;;3.32;;
2430;SDS011;1226;48.998;9.300;2022-08-03T03:08:20;4.40;;;3.98;;
2430;SDS011;1226;48.998;9.300;2022-08-03T03:10:45;3.96;;;3.56;;
2430;SDS011;1226;48.998;9.300;2022-08-03T03:13:12;4.06;;;3.66;;
2430;SDS011;1226;48.998;9.300;2022-08-03T03:15:37;4.18;;;3.34;;
2430;SDS011;1226;48.998;9.300;2022-08-03T03:18:03;4.98;;;4.40;;
2430;SDS011;1226;48.998;9.300;2022-08-03T03:20:29;4.36;;;3.96;;
2430;SDS011;1226;48.998;9.300;2022-08-03T03:22:54;4.22;;;3.82;;
2430;SDS011;1226;48.998;9.300;2022-08-03T03:25:20;3.76;;;3.46;;
2430;SDS011;1226;48.998;9.300;2022-08-03T03:27:46;4.04;;;3.42;;
2430;SDS011;1226;48.998;9.300;2022-08-03T03:30:12;6.04;;;4.02;;
2430;SDS011;1226;48.998;9.300;2022-08-03T03:32:38;4.20;;;3.80;;
2430;SDS011;1226;48.998;9.300;2022-08-03T03:35:04;4.30;;;3.90;;
2430;SDS011;1226;48.998;9.300;2022-08-03T03:37:30;4.46;;;4.02;;
2430;SDS011;1226;48.998;9.300;2022-08-03T03:39:55;4.30;;;3.70;;
2430;SDS011;1226;48.998;9.300;2022-08-03T03:42:21;4.20;;;3.80;;
2430;SDS011;1226;48.998;9.300;2022-08-03T03:44:47;4.48;;;3.96;;
2430;SDS011;1226;48.998;9.300;2022-08-03T03:47:13;5.94;;;3.60;;
2430;SDS011;1226;48.998;9.300;2022-08-03T03:49:40;4.36;;;3.96;;
2430;SDS011;1226;48.998;9.300;2022-08-03T03:52:05;4.22;;;3.80;;
2430;SDS011;1226;48.998;9.300;2022-08-03T03:57:03;4.86;;;4.24;;
2430;SDS011;1226;48.998;9.300;2022-08-03T03:59:29;5.26;;;4.86;;
2430;SDS011;1226;48.998;9.300;2022-08-03T04:01:54;4.58;;;3.68;;
2430;SDS011;1226;48.998;9.300;2022-08-03T04:04:20;5.30;;;4.02;;
2430;SDS011;1226;48.998;9.300;2022-08-03T04:06:52;4.68;;;4.18;;
2430;SDS011;1226;48.998;9.300;2022-08-03T04:09:23;5.10;;;4.12;;
2430;SDS011;1226;48.998;9.300;2022-08-03T04:11:56;5.58;;;5.04;;
2430;SDS011;1226;48.998;9.300;2022-08-03T04:14:23;5.20;;;3.58;;
2430;SDS011;1226;48.998;9.300;2022-08-03T04:16:49;5.28;;;4.78;;
2430;SDS011;1226;48.998;9.300;2022-08-03T04:19:17;4.80;;;4.30;;
2430;SDS011;1226;48.998;9.300;2022-08-03T04:21:42;5.12;;;4.10;;
2430;SDS011;1226;48.998;9.300;2022-08-03T04:24:07;4.72;;;4.32;;
2430;SDS011;1226;48.998;9.300;2022-08-03T04:26:33;4.96;;;3.82;;
2430;SDS011;1226;48.998;9.300;2022-08-03T04:28:58;4.64;;;3.78;;
2430;SDS011;1226;48.998;9.300;2022-08-03T04:31:24;4.48;;;4.02;;
2430;SDS011;1226;48.998;9.300;2022-08-03T04:33:50;4.56;;;4.12;;
2430;SDS011;1226;48.998;9.300;2022-08-03T04:36:16;4.48;;;4.08;;
2430;SDS011;1226;48.998;9.300;2022-08-03T04:38:44;3.94;;;3.54;;
2430;SDS011;1226;48.998;9.300;2022-08-03T04:41:07;4.78;;;4.26;;
2430;SDS011;1226;48.998;9.300;2022-08-03T04:43:33;5.68;;;4.22;;
2430;SDS011;1226;48.998;9.300;2022-08-03T04:45:59;5.42;;;4.16;;
2430;SDS011;1226;48.998;9.300;2022-08-03T04:48:25;4.38;;;3.98;;
2430;SDS011;1226;48.998;9.300;2022-08-03T04:50:51;4.96;;;4.46;;
2430;SDS011;1226;48.998;9.300;2022-08-03T04:53:17;4.82;;;3.80;;
2430;SDS011;1226;48.998;9.300;2022-08-03T04:55:42;4.40;;;4.00;;
2430;SDS011;1226;48.998;9.300;2022-08-03T04:58:08;4.58;;;4.08;;
2430;SDS011;1226;48.998;9.300;2022-08-03T05:00:34;5.08;;;4.62;;
2430;SDS011;1226;48.998;9.300;2022-08-03T05:03:00;5.16;;;4.64;;
2430;SDS011;1226;48.998;9.300;2022-08-03T05:05:26;4.68;;;4.16;;
2430;SDS011;1226;48.998;9.300;2022-08-03T05:07:52;4.40;;;3.98;;
2430;SDS011;1226;48.998;9.300;2022-08-03T05:10:18;4.72;;;3.92;;
2430;SDS011;1226;48.998;9.300;2022-08-03T05:12:44;4.14;;;3.58;;
2430;SDS011;1226;48.998;9.300;2022-08-03T05:15:09;4.28;;;3.88;;
2430;SDS011;1226;48.998;9.300;2022-08-03T05:17:36;4.92;;;4.22;;
2430;SDS011;1226;48.998;9.300;2022-08-03T05:20:01;5.32;;;4.46;;
2430;SDS011;1226;48.998;9.300;2022-08-03T05:22:27;4.38;;;3.98;;
2430;SDS011;1226;48.998;9.300;2022-08-03T05:24:53;4.42;;;4.00;;
2430;SDS011;1226;48.998;9.300;2022-08-03T05:27:19;10.76;;;4.78;;
2430;SDS011;1226;48.998;9.300;2022-08-03T05:29:45;5.42;;;4.50;;
2430;SDS011;1226;48.998;9.300;2022-08-03T05:32:10;5.16;;;4.32;;
2430;SDS011;1226;48.998;9.300;2022-08-03T05:34:36;6.58;;;5.08;;
2430;SDS011;1226;48.998;9.300;2022-08-03T05:37:02;5.82;;;4.10;;
2430;SDS011;1226;48.998;9.300;2022-08-03T05:39:28;4.40;;;3.90;;
2430;SDS011;1226;48.998;9.300;2022-08-03T05:41:54;5.40;;;4.62;;
2430;SDS011;1226;48.998;9.300;2022-08-03T05:44:20;5.48;;;4.48;;
2430;SDS011;1226;48.998;9.300;2022-08-03T05:46:46;4.66;;;4.26;;
2430;SDS011;1226;48.998;9.300;2022-08-03T05:49:11;5.16;;;4.60;;
2430;SDS011;1226;48.998;9.300;2022-08-03T05:51:37;6.54;;;4.70;;
2430;SDS011;1226;48.998;9.300;2022-08-03T05:54:03;4.68;;;4.28;;
2430;SDS011;1226;48.998;9.300;2022-08-03T05:56:29;8.32;;;4.76;;
2430;SDS011;1226;48.998;9.300;2022-08-03T05:58:55;6.38;;;4.50;;
2430;SDS011;1226;48.998;9.300;2022-08-03T06:01:21;7.14;;;4.62;;
2430;SDS011;1226;48.998;9.300;2022-08-03T06:03:47;6.32;;;4.20;;
2430;SDS011;1226;48.998;9.300;2022-08-03T06:06:12;4.60;;;4.20;;
2430;SDS011;1226;48.998;9.300;2022-08-03T06:08:39;4.68;;;4.28;;
2430;SDS011;1226;48.998;9.300;2022-08-03T06:11:04;6.88;;;4.90;;
2430;SDS011;1226;48.998;9.300;2022-08-03T06:13:30;10.42;;;4.48;;
2430;SDS011;1226;48.998;9.300;2022-08-03T06:15:56;4.92;;;4.06;;
2430;SDS011;1226;48.998;9.300;2022-08-03T06:18:22;5.34;;;4.74;;
2430;SDS011;1226;48.998;9.300;2022-08-03T06:20:48;6.82;;;4.46;;
2430;SDS011;1226;48.998;9.300;2022-08-03T06:23:13;5.02;;;4.58;;
2430;SDS011;1226;48.998;9.300;2022-08-03T06:25:39;7.14;;;4.22;;
2430;SDS011;1226;48.998;9.300;2022-08-03T06:28:05;7.96;;;4.30;;
2430;SDS011;1226;48.998;9.300;2022-08-03T06:30:31;4.62;;;4.18;;
2430;SDS011;1226;48.998;9.300;2022-08-03T06:32:57;6.72;;;4.00;;
2430;SDS011;1226;48.998;9.300;2022-08-03T06:35:23;7.30;;;4.24;;
2430;SDS011;1226;48.998;9.300;2022-08-03T06:37:49;8.26;;;4.58;;
2430;SDS011;1226;48.998;9.300;2022-08-03T06:40:16;5.48;;;3.38;;
2430;SDS011;1226;48.998;9.300;2022-08-03T06:42:40;6.56;;;4.36;;
2430;SDS011;1226;48.998;9.300;2022-08-03T06:45:07;4.56;;;4.16;;
2430;SDS011;1226;48.998;9.300;2022-08-03T06:47:32;6.82;;;3.38;;
2430;SDS011;1226;48.998;9.300;2022-08-03T06:49:58;4.26;;;3.86;;
2430;SDS011;1226;48.998;9.300;2022-08-03T06:52:24;10.78;;;3.84;;
2430;SDS011;1226;48.998;9.300;2022-08-03T06:54:50;3.94;;;3.54;;
2430;SDS011;1226;48.998;9.300;2022-08-03T06:57:16;4.86;;;3.30;;
2430;SDS011;1226;48.998;9.300;2022-08-03T06:59:42;4.20;;;3.48;;
2430;SDS011;1226;48.998;9.300;2022-08-03T07:02:07;9.50;;;4.38;;
2430;SDS011;1226;48.998;9.300;2022-08-03T07:04:33;9.96;;;3.78;;
2430;SDS011;1226;48.998;9.300;2022-08-03T07:06:59;7.46;;;4.28;;
2430;SDS011;1226;48.998;9.300;2022-08-03T07:09:25;4.96;;;4.00;;
2430;SDS011;1226;48.998;9.300;2022-08-03T07:11:51;4.30;;;3.90;;
2430;SDS011;1226;48.998;9.300;2022-08-03T07:14:17;4.80;;;4.06;;
2430;SDS011;1226;48.998;9.300;2022-08-03T07:16:43;7.82;;;3.86;;
2430;SDS011;1226;48.998;9.300;2022-08-03T07:19:08;5.68;;;3.60;;
2430;SDS011;1226;48.998;9.300;2022-08-03T07:21:34;6.80;;;3.78;;
2430;SDS011;1226;48.998;9.300;2022-08-03T07:24:01;5.90;;;4.08;;
2430;SDS011;1226;48.998;9.300;2022-08-03T07:26:27;7.70;;;4.86;;
2430;SDS011;1226;48.998;9.300;2022-08-03T07:28:53;6.66;;;3.96;;
2430;SDS011;1226;48.998;9.300;2022-08-03T07:31:19;5.78;;;4.34;;
2430;SDS011;1226;48.998;9.300;2022-08-03T07:33:45;8.12;;;3.78;;
2430;SDS011;1226;48.998;9.300;2022-08-03T07:36:11;5.32;;;3.64;;
2430;SDS011;1226;48.998;9.300;2022-08-03T07:38:36;6.58;;;3.14;;
2430;SDS011;1226;48.998;9.300;2022-08-03T07:41:02;9.26;;;3.60;;
2430;SDS011;1226;48.998;9.300;2022-08-03T07:43:28;7.40;;;4.00;;
2430;SDS011;1226;48.998;9.300;2022-08-03T07:45:54;9.82;;;3.86;;
2430;SDS011;1226;48.998;9.300;2022-08-03T07:48:20;6.30;;;3.36;;
2430;SDS011;1226;48.998;9.300;2022-08-03T07:50:46;9.30;;;4.24;;
2430;SDS011;1226;48.998;9.300;2022-08-03T07:53:12;9.70;;;4.94;;
2430;SDS011;1226;48.998;9.300;2022-08-03T07:55:37;4.18;;;3.78;;
2430;SDS011;1226;48.998;9.300;2022-08-03T07:58:06;5.78;;;3.32;;
2430;SDS011;1226;48.998;9.300;2022-08-03T08:00:31;5.52;;;2.84;;
2430;SDS011;1226;48.998;9.300;2022-08-03T08:02:57;6.36;;;3.54;;
2430;SDS011;1226;48.998;9.300;2022-08-03T08:05:23;5.30;;;3.06;;
2430;SDS011;1226;48.998;9.300;2022-08-03T08:07:49;2.72;;;2.52;;
2430;SDS011;1226;48.998;9.300;2022-08-03T08:10:15;5.52;;;3.20;;
2430;SDS011;1226;48.998;9.300;2022-08-03T08:12:40;6.02;;;2.68;;
2430;SDS011;1226;48.998;9.300;2022-08-03T08:15:07;3.02;;;2.70;;
2430;SDS011;1226;48.998;9.300;2022-08-03T08:20:04;7.06;;;2.54;;
2430;SDS011;1226;48.998;9.300;2022-08-03T08:22:30;4.56;;;3.02;;
2430;SDS011;1226;48.998;9.300;2022-08-03T08:24:56;8.10;;;3.56;;
2430;SDS011;1226;48.998;9.300;2022-08-03T08:27:22;4.54;;;2.70;;
2430;SDS011;1226;48.998;9.300;2022-08-03T08:29:47;5.02;;;2.82;;
2430;SDS011;1226;48.998;9.300;2022-08-03T08:32:13;2.78;;;2.58;;
2430;SDS011;1226;48.998;9.300;2022-08-03T08:34:39;3.20;;;2.52;;
2430;SDS011;1226;48.998;9.300;2022-08-03T08:37:05;3.92;;;3.38;;
2430;SDS011;1226;48.998;9.300;2022-08-03T08:39:31;3.94;;;2.82;;
2430;SDS011;1226;48.998;9.300;2022-08-03T08:41:57;4.92;;;1.96;;
2430;SDS011;1226;48.998;9.300;2022-08-03T08:44:23;2.88;;;2.58;;
2430;SDS011;1226;48.998;9.300;2022-08-03T08:46:48;2.52;;;2.32;;
2430;SDS011;1226;48.998;9.300;2022-08-03T08:49:15;3.14;;;2.20;;
2430;SDS011;1226;48.998;9.300;2022-08-03T08:51:40;5.26;;;2.32;;
2430;SDS011;1226;48.998;9.300;2022-08-03T08:54:06;3.26;;;2.30;;
2430;SDS011;1226;48.998;9.300;2022-08-03T08:56:32;3.50;;;2.48;;
2430;SDS011;1226;48.998;9.300;2022-08-03T08:58:58;4.08;;;2.68;;
2430;SDS011;1226;48.998;9.300;2022-08-03T09:01:24;4.18;;;2.50;;
2430;SDS011;1226;48.998;9.300;2022-08-03T09:03:50;3.06;;;2.42;;
2430;SDS011;1226;48.998;9.300;2022-08-03T09:06:16;2.94;;;2.40;;
2430;SDS011;1226;48.998;9.300;2022-08-03T09:08:41;3.80;;;2.46;;
2430;SDS011;1226;48.998;9.300;2022-08-03T09:11:07;4.88;;;2.18;;
2430;SDS011;1226;48.998;9.300;2022-08-03T09:13:33;3.78;;;3.00;;
2430;SDS011;1226;48.998;9.300;2022-08-03T09:18:31;2.76;;;2.54;;
2430;SDS011;1226;48.998;9.300;2022-08-03T09:21:11;2.66;;;1.92;;
2430;SDS011;1226;48.998;9.300;2022-08-03T09:23:22;2.70;;;2.50;;
2430;SDS011;1226;48.998;9.300;2022-08-03T09:25:48;3.42;;;2.34;;
2430;SDS011;1226;48.998;9.300;2022-08-03T09:28:15;5.36;;;2.26;;
2430;SDS011;1226;48.998;9.300;2022-08-03T09:30:41;2.28;;;2.08;;
2430;SDS011;1226;48.998;9.300;2022-08-03T09:33:08;2.74;;;2.44;;
2430;SDS011;1226;48.998;9.300;2022-08-03T09:35:32;2.08;;;1.90;;
2430;SDS011;1226;48.998;9.300;2022-08-03T09:40:33;2.64;;;1.94;;
2430;SDS011;1226;48.998;9.300;2022-08-03T09:42:58;2.44;;;1.92;;
2430;SDS011;1226;48.998;9.300;2022-08-03T09:45:24;3.82;;;2.02;;
2430;SDS011;1226;48.998;9.300;2022-08-03T09:47:51;5.62;;;2.88;;
2430;SDS011;1226;48.998;9.300;2022-08-03T09:50:16;2.82;;;1.80;;
2430;SDS011;1226;48.998;9.300;2022-08-03T09:52:42;5.68;;;2.34;;
2430;SDS011;1226;48.998;9.300;2022-08-03T09:55:08;2.44;;;1.80;;
2430;SDS011;1226;48.998;9.300;2022-08-03T09:57:33;3.28;;;1.78;;
2430;SDS011;1226;48.998;9.300;2022-08-03T10:02:31;2.20;;;1.94;;
2430;SDS011;1226;48.998;9.300;2022-08-03T10:04:57;2.78;;;1.90;;
2430;SDS011;1226;48.998;9.300;2022-08-03T10:07:24;6.02;;;2.22;;
2430;SDS011;1226;48.998;9.300;2022-08-03T10:09:54;2.62;;;1.94;;
2430;SDS011;1226;48.998;9.300;2022-08-03T10:12:19;3.00;;;2.06;;
2430;SDS011;1226;48.998;9.300;2022-08-03T10:14:45;3.22;;;1.80;;
2430;SDS011;1226;48.998;9.300;2022-08-03T10:17:11;2.00;;;1.90;;
2430;SDS011;1226;48.998;9.300;2022-08-03T10:19:37;3.44;;;2.24;;
2430;SDS011;1226;48.998;9.300;2022-08-03T10:22:03;2.04;;;1.84;;
2430;SDS011;1226;48.998;9.300;2022-08-03T10:24:29;2.42;;;2.16;;
2430;SDS011;1226;48.998;9.300;2022-08-03T10:26:58;2.88;;;2.34;;
2430;SDS011;1226;48.998;9.300;2022-08-03T10:29:21;2.20;;;2.00;;
2430;SDS011;1226;48.998;9.300;2022-08-03T10:31:47;3.70;;;2.12;;
2430;SDS011;1226;48.998;9.300;2022-08-03T10:34:14;3.18;;;1.92;;
2430;SDS011;1226;48.998;9.300;2022-08-03T10:36:39;1.88;;;1.74;;
2430;SDS011;1226;48.998;9.300;2022-08-03T10:39:04;3.60;;;2.58;;
2430;SDS011;1226;48.998;9.300;2022-08-03T10:41:31;3.14;;;1.80;;
2430;SDS011;1226;48.998;9.300;2022-08-03T10:44:02;2.58;;;2.12;;
2430;SDS011;1226;48.998;9.300;2022-08-03T10:46:24;5.80;;;2.50;;
2430;SDS011;1226;48.998;9.300;2022-08-03T10:48:50;2.02;;;1.84;;
2430;SDS011;1226;48.998;9.300;2022-08-03T10:51:16;2.40;;;1.96;;
2430;SDS011;1226;48.998;9.300;2022-08-03T10:53:42;2.38;;;2.18;;
2430;SDS011;1226;48.998;9.300;2022-08-03T10:56:36;2.62;;;2.02;;
2430;SDS011;1226;48.998;9.300;2022-08-03T10:58:51;2.30;;;1.90;;
2430;SDS011;1226;48.998;9.300;2022-08-03T11:01:01;3.70;;;2.56;;
2430;SDS011;1226;48.998;9.300;2022-08-03T11:03:27;3.88;;;2.16;;
2430;SDS011;1226;48.998;9.300;2022-08-03T11:05:55;2.14;;;1.94;;
2430;SDS011;1226;48.998;9.300;2022-08-03T11:08:22;3.10;;;2.40;;
2430;SDS011;1226;48.998;9.300;2022-08-03T11:10:47;3.74;;;1.80;;
2430;SDS011;1226;48.998;9.300;2022-08-03T11:13:14;4.04;;;2.56;;
2430;SDS011;1226;48.998;9.300;2022-08-03T11:15:39;2.00;;;1.80;;
2430;SDS011;1226;48.998;9.300;2022-08-03T11:18:07;2.50;;;1.98;;
2430;SDS011;1226;48.998;9.300;2022-08-03T11:23:02;2.56;;;1.96;;
2430;SDS011;1226;48.998;9.300;2022-08-03T11:25:28;2.40;;;2.20;;
2430;SDS011;1226;48.998;9.300;2022-08-03T11:30:25;2.68;;;2.20;;
2430;SDS011;1226;48.998;9.300;2022-08-03T11:32:52;2.22;;;1.94;;
2430;SDS011;1226;48.998;9.300;2022-08-03T11:35:19;2.44;;;1.94;;
2430;SDS011;1226;48.998;9.300;2022-08-03T11:38:03;3.38;;;2.02;;
2430;SDS011;1226;48.998;9.300;2022-08-03T11:40:31;2.26;;;2.06;;
2430;SDS011;1226;48.998;9.300;2022-08-03T11:42:38;3.30;;;2.00;;
2430;SDS011;1226;48.998;9.300;2022-08-03T11:45:05;2.08;;;1.88;;
2430;SDS011;1226;48.998;9.300;2022-08-03T11:47:30;2.52;;;2.28;;
2430;SDS011;1226;48.998;9.300;2022-08-03T11:49:57;3.46;;;2.10;;
2430;SDS011;1226;48.998;9.300;2022-08-03T11:52:22;2.40;;;2.20;;
2430;SDS011;1226;48.998;9.300;2022-08-03T11:54:50;2.42;;;1.80;;
2430;SDS011;1226;48.998;9.300;2022-08-03T11:57:27;2.60;;;1.92;;
2430;SDS011;1226;48.998;9.300;2022-08-03T11:59:41;1.94;;;1.84;;
2430;SDS011;1226;48.998;9.300;2022-08-03T12:02:07;3.00;;;2.12;;
2430;SDS011;1226;48.998;9.300;2022-08-03T12:07:05;2.50;;;2.30;;
2430;SDS011;1226;48.998;9.300;2022-08-03T12:09:30;2.42;;;2.16;;
2430;SDS011;1226;48.998;9.300;2022-08-03T12:11:56;3.04;;;2.32;;
2430;SDS011;1226;48.998;9.300;2022-08-03T12:14:22;2.00;;;1.80;;
2430;SDS011;1226;48.998;9.300;2022-08-03T12:16:48;3.20;;;1.82;;
2430;SDS011;1226;48.998;9.300;2022-08-03T12:19:14;2.40;;;2.20;;
2430;SDS011;1226;48.998;9.300;2022-08-03T12:21:46;2.10;;;1.86;;
2430;SDS011;1226;48.998;9.300;2022-08-03T12:24:11;2.58;;;2.24;;
2430;SDS011;1226;48.998;9.300;2022-08-03T12:26:42;3.14;;;2.26;;
2430;SDS011;1226;48.998;9.300;2022-08-03T12:29:07;2.24;;;1.80;;
2430;SDS011;1226;48.998;9.300;2022-08-03T12:31:34;2.42;;;2.22;;
2430;SDS011;1226;48.998;9.300;2022-08-03T12:34:00;2.42;;;2.22;;
2430;SDS011;1226;48.998;9.300;2022-08-03T12:36:27;2.62;;;2.04;;
2430;SDS011;1226;48.998;9.300;2022-08-03T12:38:53;2.18;;;1.98;;
2430;SDS011;1226;48.998;9.300;2022-08-03T12:41:25;3.62;;;2.64;;
2430;SDS011;1226;48.998;9.300;2022-08-03T12:43:47;2.46;;;2.26;;
2430;SDS011;1226;48.998;9.300;2022-08-03T12:46:13;2.16;;;1.96;;
2430;SDS011;1226;48.998;9.300;2022-08-03T12:49:11;1.84;;;1.74;;
2430;SDS011;1226;48.998;9.300;2022-08-03T12:51:08;2.04;;;1.86;;
2430;SDS011;1226;48.998;9.300;2022-08-03T12:53:32;2.22;;;1.78;;
2430;SDS011;1226;48.998;9.300;2022-08-03T12:56:01;2.36;;;2.16;;
2430;SDS011;1226;48.998;9.300;2022-08-03T12:58:28;2.80;;;1.84;;
2430;SDS011;1226;48.998;9.300;2022-08-03T13:00:54;2.70;;;2.12;;
2430;SDS011;1226;48.998;9.300;2022-08-03T13:03:19;3.50;;;2.40;;
2430;SDS011;1226;48.998;9.300;2022-08-03T13:05:45;4.16;;;1.66;;
2430;SDS011;1226;48.998;9.300;2022-08-03T13:08:20;1.98;;;1.86;;
2430;SDS011;1226;48.998;9.300;2022-08-03T13:10:42;2.14;;;1.94;;
2430;SDS011;1226;48.998;9.300;2022-08-03T13:13:08;2.10;;;1.90;;
2430;SDS011;1226;48.998;9.300;2022-08-03T13:15:34;2.80;;;1.56;;
2430;SDS011;1226;48.998;9.300;2022-08-03T13:17:59;4.10;;;1.78;;
2430;SDS011;1226;48.998;9.300;2022-08-03T13:20:25;3.06;;;2.26;;
2430;SDS011;1226;48.998;9.300;2022-08-03T13:22:51;2.04;;;1.84;;
2430;SDS011;1226;48.998;9.300;2022-08-03T13:25:17;4.02;;;2.20;;
2430;SDS011;1226;48.998;9.300;2022-08-03T13:27:43;5.68;;;1.84;;
2430;SDS011;1226;48.998;9.300;2022-08-03T13:30:09;2.26;;;2.00;;
2430;SDS011;1226;48.998;9.300;2022-08-03T13:32:35;2.36;;;2.16;;
2430;SDS011;1226;48.998;9.300;2022-08-03T13:35:00;2.16;;;1.72;;
2430;SDS011;1226;48.998;9.300;2022-08-03T13:37:27;2.32;;;2.04;;
2430;SDS011;1226;48.998;9.300;2022-08-03T13:39:52;4.42;;;2.30;;
2430;SDS011;1226;48.998;9.300;2022-08-03T13:42:18;2.80;;;2.24;;
2430;SDS011;1226;48.998;9.300;2022-08-03T13:44:44;2.80;;;2.32;;
2430;SDS011;1226;48.998;9.300;2022-08-03T13:47:10;2.32;;;2.00;;
2430;SDS011;1226;48.998;9.300;2022-08-03T13:49:36;2.88;;;2.14;;
2430;SDS011;1226;48.998;9.300;2022-08-03T13:52:02;2.20;;;2.00;;
2430;SDS011;1226;48.998;9.300;2022-08-03T13:54:27;3.04;;;1.96;;
2430;SDS011;1226;48.998;9.300;2022-08-03T13:56:53;2.88;;;2.24;;
2430;SDS011;1226;48.998;9.300;2022-08-03T13:59:20;2.42;;;2.12;;
2430;SDS011;1226;48.998;9.300;2022-08-03T14:01:45;3.22;;;2.34;;
2430;SDS011;1226;48.998;9.300;2022-08-03T14:04:11;2.20;;;2.00;;
2430;SDS011;1226;48.998;9.300;2022-08-03T14:06:37;2.10;;;2.00;;
2430;SDS011;1226;48.998;9.300;2022-08-03T14:09:03;4.78;;;2.40;;
2430;SDS011;1226;48.998;9.300;2022-08-03T14:11:28;2.48;;;2.28;;
2430;SDS011;1226;48.998;9.300;2022-08-03T14:13:54;2.66;;;2.42;;
2430;SDS011;1226;48.998;9.300;2022-08-03T14:16:20;4.36;;;2.22;;
2430;SDS011;1226;48.998;9.300;2022-08-03T14:18:46;3.14;;;2.50;;
2430;SDS011;1226;48.998;9.300;2022-08-03T14:21:12;2.56;;;2.34;;
2430;SDS011;1226;48.998;9.300;2022-08-03T14:23:38;3.82;;;1.88;;
2430;SDS011;1226;48.998;9.300;2022-08-03T14:26:04;2.72;;;1.76;;
2430;SDS011;1226;48.998;9.300;2022-08-03T14:28:29;2.24;;;2.04;;
2430;SDS011;1226;48.998;9.300;2022-08-03T14:30:55;2.64;;;2.44;;
2430;SDS011;1226;48.998;9.300;2022-08-03T14:33:21;2.68;;;2.04;;
2430;SDS011;1226;48.998;9.300;2022-08-03T14:35:47;2.78;;;2.40;;
2430;SDS011;1226;48.998;9.300;2022-08-03T14:38:13;4.14;;;2.02;;
2430;SDS011;1226;48.998;9.300;2022-08-03T14:40:39;2.44;;;2.16;;
2430;SDS011;1226;48.998;9.300;2022-08-03T14:43:05;2.20;;;1.94;;
2430;SDS011;1226;48.998;9.300;2022-08-03T14:45:30;2.58;;;1.94;;
2430;SDS011;1226;48.998;9.300;2022-08-03T14:47:56;1.94;;;1.80;;
2430;SDS011;1226;48.998;9.300;2022-08-03T14:50:22;2.44;;;2.24;;
2430;SDS011;1226;48.998;9.300;2022-08-03T14:52:48;1.88;;;1.78;;
2430;SDS011;1226;48.998;9.300;2022-08-03T14:55:14;2.38;;;2.18;;
2430;SDS011;1226;48.998;9.300;2022-08-03T14:57:40;2.74;;;2.02;;
2430;SDS011;1226;48.998;9.300;2022-08-03T15:00:06;1.94;;;1.74;;
2430;SDS011;1226;48.998;9.300;2022-08-03T15:02:32;2.38;;;2.16;;
2430;SDS011;1226;48.998;9.300;2022-08-03T15:04:58;2.46;;;2.26;;
2430;SDS011;1226;48.998;9.300;2022-08-03T15:07:23;5.22;;;2.16;;
2430;SDS011;1226;48.998;9.300;2022-08-03T15:09:49;4.30;;;1.98;;
2430;SDS011;1226;48.998;9.300;2022-08-03T15:12:15;2.28;;;2.00;;
2430;SDS011;1226;48.998;9.300;2022-08-03T15:14:41;4.68;;;2.28;;
2430;SDS011;1226;48.998;9.300;2022-08-03T15:17:07;3.82;;;1.68;;
2430;SDS011;1226;48.998;9.300;2022-08-03T15:19:33;2.50;;;1.90;;
2430;SDS011;1226;48.998;9.300;2022-08-03T15:21:59;2.12;;;1.76;;
2430;SDS011;1226;48.998;9.300;2022-08-03T15:24:25;2.38;;;2.18;;
2430;SDS011;1226;48.998;9.300;2022-08-03T15:26:50;2.62;;;1.90;;
2430;SDS011;1226;48.998;9.300;2022-08-03T15:29:16;2.38;;;2.18;;
2430;SDS011;1226;48.998;9.300;2022-08-03T15:31:42;2.28;;;2.08;;